Airfield :
LOGIN :

Register | Disclaimer

   EN    FR    IT 

 










Legend :    VFR   Marginal VFR   IFR   Intensive IFR   Very Intensive IFR
Visi :
Ceiling :
>= 8 km
>= 3000ft
5 to 8 km
1000 to 3000 ft
1500m to 5 km
500 to 1000 ft
800 to 1500m
200 to 500 ft
< 800m
< 200 ft
Symbols :   Thunderstorms  Fog  Heavy snow  Heavy precipitations  Wind > 20 kt
SIGMETs :     Misc.  Thunderstorms  Icing  Turbulence  Mountain Waves  Volcanic Ashes






- Airport Elevation : 526 ft
- IATA code : LTN


EGGW - London Luton

CURRENT METAR :
  • 032350Z AUTO 30003KT 9999 NCD 12/09 Q1021

EXPIRED METARs :
  • 031520Z 28011KT 9999 FEW038CB 18/10 Q1020
  • 032320Z AUTO VRB02KT 9999 NCD 12/09 Q1021
  • 032220Z AUTO 31006KT 290V350 9999 NCD 14/09 Q1021
  • 032150Z AUTO 30006KT 9999 NCD 14/10 Q1021
  • 032120Z AUTO 29006KT 9999 BKN049 15/11 Q1021

TAF TAF EGGW
Valid from the 04 at 00:00 until the 05 at 00:00 UTC


032254Z 0400/0424 30003KT 9999 FEW045
ATIS : +44 1582 395 204



MET'MAP, your aeronautical weather chart ! - Copyright ORBIFLY December 2007 - Disclaimer

ORBIFLY MET'MAP TEAM :

Programming & Development : Alexandra Zaïnal
Original concept : Baudouin d'Aumeries
Technical & hardware support : Manuel Goepfert
Assistance : Marc-Olivier Méhu




SOURCES & CREDITS :

   NOAA